createdAt,value
2019-05-25T00:01:05.511Z,16.80
2019-05-25T00:02:11.034Z,16.80
2019-05-25T00:03:16.868Z,16.70
2019-05-25T00:04:22.423Z,16.70
2019-05-25T00:05:29.030Z,16.70
2019-05-25T00:06:34.627Z,16.70
2019-05-25T00:07:40.565Z,16.60
2019-05-25T00:08:46.044Z,16.60
2019-05-25T00:09:52.350Z,16.60
2019-05-25T00:10:57.621Z,16.60
2019-05-25T00:12:03.646Z,16.50
2019-05-25T00:13:09.006Z,16.50
2019-05-25T00:14:15.376Z,16.50
2019-05-25T00:15:20.491Z,16.50
2019-05-25T00:16:26.728Z,16.40
2019-05-25T00:17:31.841Z,16.40
2019-05-25T00:18:37.756Z,16.40
2019-05-25T00:19:42.945Z,16.40
2019-05-25T00:20:49.128Z,16.40
2019-05-25T00:21:54.282Z,16.30
2019-05-25T00:23:00.011Z,16.30
2019-05-25T00:24:12.336Z,16.30
2019-05-25T00:25:12.920Z,16.20
2019-05-25T00:26:18.272Z,16.20
2019-05-25T00:27:24.545Z,16.20
2019-05-25T00:28:30.044Z,16.20
2019-05-25T00:29:36.137Z,16.10
2019-05-25T00:30:41.825Z,16.10
2019-05-25T00:31:47.547Z,16.10
2019-05-25T00:32:53.249Z,16.10
2019-05-25T00:33:59.153Z,16.00
2019-05-25T00:35:04.355Z,16.10
2019-05-25T00:36:10.046Z,16.00
2019-05-25T00:37:15.410Z,16.00
2019-05-25T00:38:21.312Z,15.90
2019-05-25T00:39:26.610Z,15.90
2019-05-25T00:40:32.745Z,15.90
2019-05-25T00:41:37.924Z,15.90
2019-05-25T00:42:44.314Z,15.90
2019-05-25T00:43:49.422Z,15.80
2019-05-25T00:44:55.598Z,15.80
2019-05-25T00:46:00.968Z,15.80
2019-05-25T00:47:06.897Z,15.80
2019-05-25T00:48:12.663Z,15.80
2019-05-25T00:49:18.458Z,15.70
2019-05-25T00:50:23.525Z,15.70
2019-05-25T00:51:29.390Z,15.70
2019-05-25T00:52:34.932Z,15.70
2019-05-25T00:53:41.432Z,15.70
2019-05-25T00:54:46.861Z,15.70
2019-05-25T00:55:53.294Z,15.60
2019-05-25T00:56:58.256Z,15.60
2019-05-25T00:58:04.550Z,15.60
2019-05-25T00:59:09.967Z,15.60
2019-05-25T01:00:18.619Z,15.60
2019-05-25T01:01:27.851Z,15.60
2019-05-25T01:02:36.907Z,15.60
2019-05-25T01:03:43.784Z,15.50
2019-05-25T01:04:52.503Z,15.50
2019-05-25T01:05:59.715Z,15.50
2019-05-25T01:07:09.175Z,15.50
2019-05-25T01:08:16.003Z,15.50
2019-05-25T01:09:34.670Z,15.40
2019-05-25T01:10:39.806Z,15.40
2019-05-25T01:11:45.674Z,15.40
2019-05-25T01:12:50.755Z,15.30
2019-05-25T01:13:56.893Z,15.30
2019-05-25T01:15:02.149Z,15.30
2019-05-25T01:16:08.197Z,15.30
2019-05-25T01:17:13.553Z,15.30
2019-05-25T01:18:19.975Z,15.20
2019-05-25T01:19:25.078Z,15.20
2019-05-25T01:20:30.961Z,15.20
2019-05-25T01:21:36.056Z,15.10
2019-05-25T01:22:42.188Z,15.10
2019-05-25T01:23:47.548Z,15.10
2019-05-25T01:24:53.508Z,15.10
2019-05-25T01:25:58.921Z,15.10
2019-05-25T01:27:05.338Z,15.10
2019-05-25T01:28:10.824Z,15.00
2019-05-25T01:29:17.218Z,15.00
2019-05-25T01:30:22.496Z,15.00
2019-05-25T01:31:28.791Z,15.00
2019-05-25T01:32:34.527Z,15.00
2019-05-25T01:33:40.767Z,14.90
2019-05-25T01:34:45.790Z,14.90
2019-05-25T01:35:52.290Z,14.90
2019-05-25T01:36:58.291Z,14.80
2019-05-25T01:38:04.614Z,14.90
2019-05-25T01:39:09.991Z,14.80
2019-05-25T01:40:17.086Z,14.80
2019-05-25T01:41:22.344Z,14.80
2019-05-25T01:42:29.253Z,14.70
2019-05-25T01:43:34.456Z,14.70
2019-05-25T01:44:40.412Z,14.70
2019-05-25T01:45:45.859Z,14.70
2019-05-25T01:46:52.017Z,14.60
2019-05-25T01:47:57.422Z,14.60
2019-05-25T01:49:03.547Z,14.60
2019-05-25T01:50:09.475Z,14.60
2019-05-25T01:51:15.521Z,14.50
2019-05-25T01:52:20.524Z,14.50
2019-05-25T01:53:27.033Z,14.50
2019-05-25T01:54:32.444Z,14.50
2019-05-25T01:55:38.496Z,14.50
2019-05-25T01:56:43.570Z,14.50
2019-05-25T01:57:49.507Z,14.40
2019-05-25T01:58:54.911Z,14.40
2019-05-25T02:00:00.705Z,14.40
2019-05-25T02:01:06.535Z,14.40
2019-05-25T02:02:16.460Z,14.30
2019-05-25T02:03:21.813Z,14.30
2019-05-25T02:04:27.708Z,14.30
2019-05-25T02:05:33.767Z,14.30
2019-05-25T02:06:39.625Z,14.20
2019-05-25T02:07:45.003Z,14.20
2019-05-25T02:08:51.238Z,14.20
2019-05-25T02:09:56.259Z,14.20
2019-05-25T02:11:02.496Z,14.10
2019-05-25T02:12:07.626Z,14.10
2019-05-25T02:13:13.925Z,14.10
2019-05-25T02:14:19.036Z,14.10
2019-05-25T02:15:25.392Z,14.10
2019-05-25T02:16:30.791Z,14.00
2019-05-25T02:17:36.996Z,14.00
2019-05-25T02:18:45.561Z,14.00
2019-05-25T02:19:49.997Z,14.00
2019-05-25T02:20:55.099Z,13.90
2019-05-25T02:22:01.219Z,13.90
2019-05-25T02:23:06.705Z,13.90
2019-05-25T02:24:12.988Z,13.90
2019-05-25T02:25:19.209Z,13.90
2019-05-25T02:26:25.153Z,13.80
2019-05-25T02:27:30.166Z,13.90
2019-05-25T02:28:36.338Z,13.80
2019-05-25T02:29:41.916Z,13.80
2019-05-25T02:30:47.779Z,13.80
2019-05-25T02:31:53.161Z,13.70
2019-05-25T02:32:59.653Z,13.70
2019-05-25T02:34:05.129Z,13.70
2019-05-25T02:35:16.203Z,13.70
2019-05-25T02:36:21.615Z,13.60
2019-05-25T02:37:27.467Z,13.60
2019-05-25T02:38:32.919Z,13.60
2019-05-25T02:39:38.880Z,13.60
2019-05-25T02:40:44.076Z,13.60
2019-05-25T02:41:49.946Z,13.50
2019-05-25T02:42:55.187Z,13.50
2019-05-25T02:44:01.166Z,13.50
2019-05-25T02:45:06.833Z,13.60
2019-05-25T02:46:12.969Z,13.50
2019-05-25T02:47:18.452Z,13.40
2019-05-25T02:48:24.402Z,13.40
2019-05-25T02:49:30.389Z,13.40
2019-05-25T02:50:36.444Z,13.40
2019-05-25T02:51:41.891Z,13.30
2019-05-25T02:52:47.828Z,13.30
2019-05-25T02:53:53.220Z,13.30
2019-05-25T02:54:59.374Z,13.30
2019-05-25T02:56:05.013Z,13.30
2019-05-25T02:57:10.955Z,13.30
2019-05-25T02:58:16.058Z,13.30
2019-05-25T02:59:21.921Z,13.20
2019-05-25T03:00:34.929Z,13.20
2019-05-25T03:01:40.860Z,13.20
2019-05-25T03:02:46.269Z,13.20
2019-05-25T03:03:52.946Z,13.20
2019-05-25T03:04:58.951Z,13.20
2019-05-25T03:06:07.286Z,13.20
2019-05-25T03:07:14.073Z,13.20
2019-05-25T03:08:20.291Z,13.10
2019-05-25T03:09:28.369Z,13.10
2019-05-25T03:10:34.810Z,13.10
2019-05-25T03:11:41.697Z,13.10
2019-05-25T03:12:47.664Z,13.10
2019-05-25T03:13:53.446Z,13.10
2019-05-25T03:14:59.437Z,13.10
2019-05-25T03:16:04.714Z,13.00
2019-05-25T03:17:10.881Z,13.00
2019-05-25T03:18:15.978Z,13.00
2019-05-25T03:19:21.963Z,13.00
2019-05-25T03:20:27.468Z,13.00
2019-05-25T03:21:33.267Z,13.00
2019-05-25T03:22:38.648Z,13.00
2019-05-25T03:23:44.857Z,13.00
2019-05-25T03:24:50.257Z,12.90
2019-05-25T03:25:56.448Z,12.90
2019-05-25T03:27:01.631Z,12.90
2019-05-25T03:28:07.454Z,12.90
2019-05-25T03:29:13.013Z,12.90
2019-05-25T03:30:32.208Z,12.90
2019-05-25T03:31:37.902Z,12.80
2019-05-25T03:32:44.331Z,12.80
2019-05-25T03:33:49.346Z,12.80
2019-05-25T03:34:55.148Z,12.80
2019-05-25T03:36:00.903Z,12.80
2019-05-25T03:37:06.777Z,12.80
2019-05-25T03:38:12.263Z,12.80
2019-05-25T03:39:18.621Z,12.80
2019-05-25T03:40:23.889Z,12.70
2019-05-25T03:41:29.772Z,12.70
2019-05-25T03:42:36.058Z,12.70
2019-05-25T03:43:42.497Z,12.70
2019-05-25T03:44:47.957Z,12.70
2019-05-25T03:45:54.153Z,12.70
2019-05-25T03:46:59.179Z,12.70
2019-05-25T03:48:05.251Z,12.70
2019-05-25T03:49:10.749Z,12.60
2019-05-25T03:50:16.913Z,12.60
2019-05-25T03:51:22.705Z,12.60
2019-05-25T03:52:28.689Z,12.60
2019-05-25T03:53:33.852Z,12.60
2019-05-25T03:54:39.968Z,12.60
2019-05-25T03:55:45.241Z,12.60
2019-05-25T03:56:51.539Z,12.60
2019-05-25T03:57:56.894Z,12.60
2019-05-25T03:59:02.950Z,12.60
2019-05-25T04:00:08.719Z,12.60
2019-05-25T04:01:14.738Z,12.60
2019-05-25T04:02:20.057Z,12.60
2019-05-25T04:03:26.139Z,12.60
2019-05-25T04:04:31.593Z,12.60
2019-05-25T04:05:38.017Z,12.60
2019-05-25T04:06:43.029Z,12.60
2019-05-25T04:07:48.998Z,12.60
2019-05-25T04:08:54.550Z,12.60
2019-05-25T04:10:00.703Z,12.60
2019-05-25T04:11:05.889Z,12.60
2019-05-25T04:12:12.035Z,12.60
2019-05-25T04:13:17.438Z,12.50
2019-05-25T04:14:23.556Z,12.60
2019-05-25T04:15:29.377Z,12.60
2019-05-25T04:16:35.168Z,12.50
2019-05-25T04:17:40.486Z,12.50
2019-05-25T04:18:46.342Z,12.50
2019-05-25T04:19:51.400Z,12.50
2019-05-25T04:20:57.483Z,12.50
2019-05-25T04:22:02.749Z,12.50
2019-05-25T04:23:09.072Z,12.60
2019-05-25T04:24:17.877Z,12.60
2019-05-25T04:25:23.923Z,12.60
2019-05-25T04:26:29.105Z,12.60
2019-05-25T04:27:35.409Z,12.60
2019-05-25T04:28:40.903Z,12.60
2019-05-25T04:29:47.104Z,12.60
2019-05-25T04:30:52.481Z,12.60
2019-05-25T04:31:58.602Z,12.60
2019-05-25T04:33:03.727Z,12.60
2019-05-25T04:34:10.104Z,12.60
2019-05-25T04:35:15.839Z,12.60
2019-05-25T04:36:21.736Z,12.60
2019-05-25T04:37:27.219Z,12.60
2019-05-25T04:38:33.012Z,12.60
2019-05-25T04:39:38.582Z,12.60
2019-05-25T04:40:44.456Z,12.60
2019-05-25T04:41:49.560Z,12.60
2019-05-25T04:42:55.391Z,12.60
2019-05-25T04:44:00.661Z,12.60
2019-05-25T04:45:08.786Z,12.60
2019-05-25T04:46:14.004Z,12.70
2019-05-25T04:47:26.936Z,12.70
2019-05-25T04:48:28.544Z,12.70
2019-05-25T04:49:34.893Z,12.70
2019-05-25T04:50:40.494Z,12.70
2019-05-25T04:51:46.415Z,12.70
2019-05-25T04:52:51.988Z,12.70
2019-05-25T04:53:58.157Z,12.80
2019-05-25T04:55:03.116Z,12.70
2019-05-25T04:56:09.515Z,12.80
2019-05-25T04:57:14.893Z,12.80
2019-05-25T04:58:21.096Z,12.80
2019-05-25T04:59:26.681Z,12.80
2019-05-25T05:00:32.564Z,12.80
2019-05-25T05:01:38.020Z,12.80
2019-05-25T05:02:44.211Z,12.80
2019-05-25T05:03:49.564Z,12.90
2019-05-25T05:04:55.726Z,12.90
2019-05-25T05:06:00.680Z,12.90
2019-05-25T05:07:06.978Z,12.90
2019-05-25T05:08:12.440Z,12.90
2019-05-25T05:09:19.085Z,12.90
2019-05-25T05:10:24.200Z,12.90
2019-05-25T05:11:30.101Z,13.00
2019-05-25T05:12:35.376Z,13.00
2019-05-25T05:13:41.566Z,13.00
2019-05-25T05:14:46.719Z,13.00
2019-05-25T05:15:52.852Z,13.00
2019-05-25T05:16:58.113Z,13.00
2019-05-25T05:18:04.000Z,13.10
2019-05-25T05:19:09.320Z,13.10
2019-05-25T05:20:15.816Z,13.10
2019-05-25T05:21:21.460Z,13.10
2019-05-25T05:22:27.901Z,13.10
2019-05-25T05:23:33.670Z,13.10
2019-05-25T05:24:39.621Z,13.20
2019-05-25T05:25:45.801Z,13.20
2019-05-25T05:26:55.968Z,13.20
2019-05-25T05:27:59.233Z,13.20
2019-05-25T05:29:05.709Z,13.20
2019-05-25T05:30:11.594Z,13.30
2019-05-25T05:31:23.530Z,13.30
2019-05-25T05:32:27.398Z,13.30
2019-05-25T05:33:32.531Z,13.30
2019-05-25T05:34:37.695Z,13.40
2019-05-25T05:35:44.449Z,13.40
2019-05-25T05:36:50.282Z,13.40
2019-05-25T05:37:56.628Z,13.40
2019-05-25T05:39:01.909Z,13.40
2019-05-25T05:40:09.627Z,13.40
2019-05-25T05:41:17.628Z,13.40
2019-05-25T05:42:25.905Z,13.50
2019-05-25T05:43:32.085Z,13.50
2019-05-25T05:44:42.304Z,13.50
2019-05-25T05:45:51.701Z,13.50
2019-05-25T05:47:00.392Z,13.50
2019-05-25T05:48:05.842Z,13.50
2019-05-25T05:49:14.661Z,13.60
2019-05-25T05:50:20.041Z,13.60
2019-05-25T05:51:28.357Z,13.60
2019-05-25T05:52:38.637Z,13.60
2019-05-25T05:53:47.299Z,13.60
2019-05-25T05:54:54.144Z,13.60
2019-05-25T05:56:00.046Z,13.60
2019-05-25T05:57:12.261Z,13.70
2019-05-25T05:58:13.082Z,13.70
2019-05-25T05:59:18.165Z,13.70
2019-05-25T06:00:24.479Z,13.70
2019-05-25T06:01:29.669Z,13.70
2019-05-25T06:02:35.868Z,13.70
2019-05-25T06:03:41.382Z,13.80
2019-05-25T06:04:48.309Z,13.80
2019-05-25T06:05:53.227Z,13.80
2019-05-25T06:06:59.190Z,13.80
2019-05-25T06:08:05.085Z,13.80
2019-05-25T06:09:11.394Z,13.90
2019-05-25T06:10:17.730Z,13.90
2019-05-25T06:11:23.592Z,13.90
2019-05-25T06:12:28.700Z,13.90
2019-05-25T06:13:35.277Z,13.90
2019-05-25T06:14:40.229Z,13.90
2019-05-25T06:15:47.124Z,14.00
2019-05-25T06:16:52.221Z,14.00
2019-05-25T06:17:58.400Z,14.00
2019-05-25T06:19:03.520Z,14.00
2019-05-25T06:20:10.856Z,14.00
2019-05-25T06:21:16.101Z,14.00
2019-05-25T06:22:22.335Z,14.00
2019-05-25T06:23:27.355Z,14.10
2019-05-25T06:24:33.718Z,14.10
2019-05-25T06:25:39.081Z,14.10
2019-05-25T06:26:44.938Z,14.10
2019-05-25T06:27:50.413Z,14.20
2019-05-25T06:28:56.279Z,14.20
2019-05-25T06:30:01.778Z,14.20
2019-05-25T06:31:08.265Z,14.20
2019-05-25T06:32:13.621Z,14.30
2019-05-25T06:33:20.016Z,14.30
2019-05-25T06:34:25.234Z,14.30
2019-05-25T06:35:31.210Z,14.30
2019-05-25T06:36:36.759Z,14.30
2019-05-25T06:37:43.489Z,14.40
2019-05-25T06:38:48.510Z,14.40
2019-05-25T06:39:54.956Z,14.40
2019-05-25T06:41:00.034Z,14.50
2019-05-25T06:42:06.011Z,14.50
2019-05-25T06:43:11.120Z,14.50
2019-05-25T06:44:17.294Z,14.50
2019-05-25T06:45:22.548Z,14.60
2019-05-25T06:46:29.108Z,14.60
2019-05-25T06:47:34.721Z,14.60
2019-05-25T06:48:40.879Z,14.70
2019-05-25T06:49:45.886Z,14.70
2019-05-25T06:50:52.622Z,14.70
2019-05-25T06:51:57.893Z,14.70
2019-05-25T06:53:03.696Z,14.70
2019-05-25T06:54:09.354Z,14.70
2019-05-25T06:55:15.700Z,14.80
2019-05-25T06:56:20.883Z,14.80
2019-05-25T06:57:40.317Z,14.90
2019-05-25T06:58:33.914Z,14.90
2019-05-25T06:59:39.813Z,14.90
2019-05-25T07:00:45.603Z,14.90
2019-05-25T07:01:51.845Z,14.90
2019-05-25T07:02:57.624Z,15.00
2019-05-25T07:04:04.523Z,15.00
2019-05-25T07:05:10.776Z,15.00
2019-05-25T07:06:16.573Z,15.00
2019-05-25T07:07:21.968Z,15.10
2019-05-25T07:08:28.720Z,15.10
2019-05-25T07:09:33.919Z,15.10
2019-05-25T07:10:39.986Z,15.10
2019-05-25T07:11:45.029Z,15.10
2019-05-25T07:12:51.285Z,15.20
2019-05-25T07:13:56.982Z,15.20
2019-05-25T07:15:02.947Z,15.20
2019-05-25T07:16:08.358Z,15.20
2019-05-25T07:17:14.476Z,15.30
2019-05-25T07:18:19.900Z,15.30
2019-05-25T07:19:26.167Z,15.30
2019-05-25T07:20:31.802Z,15.30
2019-05-25T07:21:38.018Z,15.40
2019-05-25T07:22:43.687Z,15.40
2019-05-25T07:23:49.968Z,15.40
2019-05-25T07:24:55.487Z,15.40
2019-05-25T07:26:01.979Z,15.50
2019-05-25T07:27:07.886Z,15.50
2019-05-25T07:28:13.814Z,15.50
2019-05-25T07:29:19.693Z,15.50
2019-05-25T07:30:25.725Z,15.50
2019-05-25T07:31:30.890Z,15.60
2019-05-25T07:32:36.841Z,15.60
2019-05-25T07:33:42.008Z,15.60
2019-05-25T07:34:47.796Z,15.60
2019-05-25T07:35:53.638Z,15.60
2019-05-25T07:36:59.761Z,15.70
2019-05-25T07:38:04.936Z,15.70
2019-05-25T07:39:10.750Z,15.70
2019-05-25T07:40:16.589Z,15.70
2019-05-25T07:41:22.362Z,15.80
2019-05-25T07:42:27.636Z,15.80
2019-05-25T07:43:33.842Z,15.80
2019-05-25T07:44:39.024Z,15.80
2019-05-25T07:45:45.141Z,15.80
2019-05-25T07:46:50.685Z,15.90
2019-05-25T07:47:57.060Z,15.90
2019-05-25T07:49:02.297Z,15.90
2019-05-25T07:50:09.604Z,15.90
2019-05-25T07:51:15.354Z,16.00
2019-05-25T07:52:21.219Z,16.00
2019-05-25T07:53:27.095Z,16.00
2019-05-25T07:54:33.590Z,16.00
2019-05-25T07:55:38.857Z,16.00
2019-05-25T07:56:44.927Z,16.00
2019-05-25T07:57:50.132Z,16.10
2019-05-25T07:58:56.647Z,16.10
2019-05-25T08:00:02.228Z,16.10
2019-05-25T08:01:08.657Z,16.10
2019-05-25T08:02:13.854Z,16.10
2019-05-25T08:03:19.718Z,16.10
2019-05-25T08:04:25.237Z,16.10
2019-05-25T08:05:31.441Z,16.20
2019-05-25T08:06:37.125Z,16.20
2019-05-25T08:07:43.078Z,16.20
2019-05-25T08:08:48.528Z,16.20
2019-05-25T08:09:54.894Z,16.20
2019-05-25T08:11:00.595Z,16.20
2019-05-25T08:12:06.841Z,16.20
2019-05-25T08:13:12.087Z,16.20
2019-05-25T08:14:18.237Z,16.30
2019-05-25T08:15:23.631Z,16.30
2019-05-25T08:16:30.078Z,16.30
2019-05-25T08:17:35.545Z,16.30
2019-05-25T08:18:42.012Z,16.30
2019-05-25T08:19:47.504Z,16.30
2019-05-25T08:20:54.015Z,16.30
2019-05-25T08:21:59.763Z,16.30
2019-05-25T08:23:06.087Z,16.30
2019-05-25T08:24:11.204Z,16.40
2019-05-25T08:25:17.674Z,16.40
2019-05-25T08:26:23.203Z,16.40
2019-05-25T08:27:29.534Z,16.40
2019-05-25T08:28:34.721Z,16.40
2019-05-25T08:29:40.534Z,16.50
2019-05-25T08:30:46.084Z,16.50
2019-05-25T08:31:52.371Z,16.50
2019-05-25T08:32:57.467Z,16.50
2019-05-25T08:34:03.371Z,16.50
2019-05-25T08:35:08.939Z,16.60
2019-05-25T08:36:15.072Z,16.60
2019-05-25T08:37:20.539Z,16.60
2019-05-25T08:38:26.492Z,16.60
2019-05-25T08:39:31.401Z,16.60
2019-05-25T08:40:37.746Z,16.60
2019-05-25T08:41:45.424Z,16.70
2019-05-25T08:42:50.551Z,16.70
2019-05-25T08:43:55.895Z,16.70
2019-05-25T08:45:01.830Z,16.70
2019-05-25T08:46:07.264Z,16.70
2019-05-25T08:47:13.402Z,16.80
2019-05-25T08:48:18.530Z,16.80
2019-05-25T08:49:24.398Z,16.80
2019-05-25T08:50:38.123Z,16.80
2019-05-25T08:51:37.269Z,16.80
2019-05-25T08:52:42.460Z,16.90
2019-05-25T08:53:48.815Z,16.90
2019-05-25T08:54:56.751Z,16.90
2019-05-25T08:56:01.830Z,16.90
2019-05-25T08:57:06.978Z,17.00
2019-05-25T08:58:12.866Z,17.00
2019-05-25T08:59:18.714Z,17.00
2019-05-25T09:00:25.029Z,17.00
2019-05-25T09:01:30.831Z,17.10
2019-05-25T09:02:37.050Z,17.10
2019-05-25T09:03:42.053Z,17.10
2019-05-25T09:04:48.736Z,17.10
2019-05-25T09:05:54.043Z,17.10
2019-05-25T09:07:00.254Z,17.20
2019-05-25T09:08:06.036Z,17.20
2019-05-25T09:09:12.254Z,17.20
2019-05-25T09:10:19.308Z,17.30
2019-05-25T09:11:25.479Z,17.30
2019-05-25T09:12:31.007Z,17.30
2019-05-25T09:13:36.798Z,17.40
2019-05-25T09:14:41.849Z,17.40
2019-05-25T09:15:48.161Z,17.40
2019-05-25T09:16:53.983Z,17.50
2019-05-25T09:18:00.023Z,17.50
2019-05-25T09:19:05.121Z,17.50
2019-05-25T09:20:11.949Z,17.50
2019-05-25T09:21:17.690Z,17.60
2019-05-25T09:22:23.801Z,17.60
2019-05-25T09:23:29.203Z,17.60
2019-05-25T09:24:35.736Z,17.70
2019-05-25T09:25:41.355Z,17.70
2019-05-25T09:26:47.667Z,17.70
2019-05-25T09:27:53.718Z,17.80
2019-05-25T09:29:04.666Z,17.80
2019-05-25T09:30:07.798Z,17.90
2019-05-25T09:31:13.646Z,17.90
2019-05-25T09:32:19.494Z,18.00
2019-05-25T09:33:25.434Z,18.10
2019-05-25T09:34:30.846Z,18.10
2019-05-25T09:35:36.977Z,18.20
2019-05-25T09:36:42.379Z,18.20
2019-05-25T09:37:48.470Z,18.30
2019-05-25T09:38:53.485Z,18.40
2019-05-25T09:39:59.382Z,18.40
2019-05-25T09:41:05.172Z,18.50
2019-05-25T09:42:11.022Z,18.60
2019-05-25T09:43:16.449Z,18.70
2019-05-25T09:44:22.438Z,18.70
2019-05-25T09:45:27.554Z,18.80
2019-05-25T09:46:33.500Z,18.90
2019-05-25T09:47:39.037Z,18.90
2019-05-25T09:48:45.055Z,19.00
2019-05-25T09:49:50.489Z,19.10
2019-05-25T09:50:56.377Z,19.10
2019-05-25T09:52:01.837Z,19.20
2019-05-25T09:53:07.692Z,19.30
2019-05-25T09:54:13.746Z,19.30
2019-05-25T09:55:20.006Z,19.30
2019-05-25T09:56:25.855Z,19.40
2019-05-25T09:57:31.798Z,19.40
2019-05-25T09:58:36.933Z,19.50
2019-05-25T09:59:42.905Z,19.50
2019-05-25T10:00:48.211Z,19.60
2019-05-25T10:01:54.154Z,19.60
2019-05-25T10:02:59.331Z,19.70
2019-05-25T10:04:05.959Z,19.70
2019-05-25T10:05:11.846Z,19.80
2019-05-25T10:06:17.794Z,19.80
2019-05-25T10:07:23.301Z,19.80
2019-05-25T10:08:29.570Z,19.90
2019-05-25T10:09:35.068Z,19.90
2019-05-25T10:10:41.722Z,19.90
2019-05-25T10:11:47.135Z,20.00
2019-05-25T10:12:53.367Z,20.00
2019-05-25T10:13:58.379Z,20.00
2019-05-25T10:15:04.244Z,20.00
2019-05-25T10:16:09.465Z,20.10
2019-05-25T10:17:15.728Z,20.10
2019-05-25T10:18:20.812Z,20.20
2019-05-25T10:19:26.743Z,20.20
2019-05-25T10:20:32.084Z,20.20
2019-05-25T10:21:38.434Z,20.30
2019-05-25T10:22:43.549Z,20.30
2019-05-25T10:23:49.675Z,20.30
2019-05-25T10:24:55.271Z,20.40
2019-05-25T10:26:01.432Z,20.40
2019-05-25T10:27:06.620Z,20.40
2019-05-25T10:28:12.573Z,20.40
2019-05-25T10:29:18.028Z,20.50
2019-05-25T10:30:24.229Z,20.50
2019-05-25T10:31:30.024Z,20.50
2019-05-25T10:32:35.975Z,20.50
2019-05-25T10:33:41.084Z,20.60
2019-05-25T10:34:46.881Z,20.60
2019-05-25T10:35:52.388Z,20.70
2019-05-25T10:36:58.320Z,20.70
2019-05-25T10:38:03.754Z,20.80
2019-05-25T10:39:10.963Z,20.80
2019-05-25T10:40:17.619Z,20.80
2019-05-25T10:41:23.607Z,20.90
2019-05-25T10:42:29.054Z,20.90
2019-05-25T10:43:35.013Z,21.00
2019-05-25T10:44:40.207Z,21.00
2019-05-25T10:45:46.448Z,21.10
2019-05-25T10:46:51.808Z,21.10
2019-05-25T10:47:58.026Z,21.20
2019-05-25T10:49:03.966Z,21.20
2019-05-25T10:50:11.479Z,21.30
2019-05-25T10:51:16.636Z,21.30
2019-05-25T10:52:22.899Z,21.30
2019-05-25T10:53:28.007Z,21.40
2019-05-25T10:54:34.130Z,21.50
2019-05-25T10:55:39.473Z,21.50
2019-05-25T10:56:45.752Z,21.50
2019-05-25T10:57:51.073Z,21.60
2019-05-25T10:58:57.846Z,21.60
2019-05-25T11:00:03.203Z,21.70
2019-05-25T11:01:09.154Z,21.70
2019-05-25T11:02:14.267Z,21.80
2019-05-25T11:03:20.216Z,21.80
2019-05-25T11:04:25.253Z,21.90
2019-05-25T11:05:31.199Z,21.90
2019-05-25T11:06:36.368Z,21.90
2019-05-25T11:07:42.288Z,21.90
2019-05-25T11:08:47.674Z,22.00
2019-05-25T11:09:53.555Z,22.00
2019-05-25T11:10:59.671Z,22.00
2019-05-25T11:12:05.997Z,22.00
2019-05-25T11:13:11.158Z,22.00
2019-05-25T11:14:17.908Z,22.10
2019-05-25T11:15:23.091Z,22.10
2019-05-25T11:16:29.058Z,22.10
2019-05-25T11:17:34.557Z,22.20
2019-05-25T11:18:40.573Z,22.30
2019-05-25T11:19:46.082Z,22.30
2019-05-25T11:20:52.570Z,22.30
2019-05-25T11:21:57.972Z,22.40
2019-05-25T11:23:04.523Z,22.40
2019-05-25T11:24:09.636Z,22.50
2019-05-25T11:25:15.970Z,22.50
2019-05-25T11:26:21.057Z,22.50
2019-05-25T11:27:27.009Z,22.60
2019-05-25T11:28:32.677Z,22.60
2019-05-25T11:29:38.830Z,22.60
2019-05-25T11:30:44.366Z,22.70
2019-05-25T11:31:56.530Z,22.70
2019-05-25T11:32:57.742Z,22.70
2019-05-25T11:34:04.256Z,22.70
2019-05-25T11:35:10.259Z,22.70
2019-05-25T11:36:16.102Z,22.80
2019-05-25T11:37:21.145Z,22.80
2019-05-25T11:38:27.337Z,22.80
2019-05-25T11:39:32.496Z,22.80
2019-05-25T11:40:38.716Z,22.80
2019-05-25T11:41:44.263Z,22.80
2019-05-25T11:42:50.140Z,22.80
2019-05-25T11:43:55.519Z,22.80
2019-05-25T11:45:01.626Z,22.80
2019-05-25T11:46:06.866Z,22.90
2019-05-25T11:47:12.865Z,22.90
2019-05-25T11:48:18.667Z,22.90
2019-05-25T11:49:25.362Z,22.90
2019-05-25T11:50:30.848Z,22.90
2019-05-25T11:51:37.143Z,22.90
2019-05-25T11:52:43.101Z,22.90
2019-05-25T11:53:49.370Z,22.90
2019-05-25T11:54:54.610Z,22.90
2019-05-25T11:56:00.855Z,22.90
2019-05-25T11:57:06.400Z,22.90
2019-05-25T11:58:12.366Z,23.00
2019-05-25T11:59:17.533Z,23.00
2019-05-25T12:00:25.990Z,23.00
2019-05-25T12:01:31.316Z,23.00
2019-05-25T12:02:37.178Z,23.10
2019-05-25T12:03:42.684Z,23.10
2019-05-25T12:04:48.868Z,23.10
2019-05-25T12:05:54.698Z,23.20
2019-05-25T12:07:00.724Z,23.20
2019-05-25T12:08:06.295Z,23.20
2019-05-25T12:09:12.526Z,23.20
2019-05-25T12:10:19.844Z,23.20
2019-05-25T12:11:25.979Z,23.30
2019-05-25T12:12:31.051Z,23.30
2019-05-25T12:13:37.091Z,23.30
2019-05-25T12:14:42.559Z,23.30
2019-05-25T12:15:49.017Z,23.30
2019-05-25T12:16:54.194Z,23.30
2019-05-25T12:18:00.273Z,23.30
2019-05-25T12:19:05.452Z,23.40
2019-05-25T12:20:12.353Z,23.40
2019-05-25T12:21:17.831Z,23.40
2019-05-25T12:22:23.772Z,23.40
2019-05-25T12:23:29.257Z,23.40
2019-05-25T12:24:35.434Z,23.50
2019-05-25T12:25:40.786Z,23.50
2019-05-25T12:26:46.765Z,23.50
2019-05-25T12:27:52.599Z,23.60
2019-05-25T12:28:58.493Z,23.60
2019-05-25T12:30:03.827Z,23.70
2019-05-25T12:31:09.706Z,23.70
2019-05-25T12:32:14.951Z,23.80
2019-05-25T12:33:20.784Z,23.80
2019-05-25T12:34:26.729Z,23.90
2019-05-25T12:35:33.142Z,23.90
2019-05-25T12:36:38.343Z,24.00
2019-05-25T12:37:44.249Z,24.00
2019-05-25T12:38:49.622Z,24.10
2019-05-25T12:39:55.861Z,24.10
2019-05-25T12:41:01.626Z,24.10
2019-05-25T12:42:07.699Z,24.20
2019-05-25T12:43:13.030Z,24.20
2019-05-25T12:44:18.825Z,24.20
2019-05-25T12:45:25.759Z,24.20
2019-05-25T12:46:32.048Z,24.20
2019-05-25T12:47:37.213Z,24.20
2019-05-25T12:48:43.602Z,24.20
2019-05-25T12:49:50.958Z,24.20
2019-05-25T12:50:56.896Z,24.30
2019-05-25T12:52:02.069Z,24.30
2019-05-25T12:53:08.342Z,24.30
2019-05-25T12:54:14.303Z,24.30
2019-05-25T12:55:20.519Z,24.20
2019-05-25T12:56:25.955Z,24.20
2019-05-25T12:57:32.223Z,24.20
2019-05-25T12:58:37.967Z,24.20
2019-05-25T12:59:43.912Z,24.20
2019-05-25T13:00:56.028Z,24.20
2019-05-25T13:01:56.773Z,24.20
2019-05-25T13:03:02.276Z,24.10
2019-05-25T13:04:08.587Z,24.10
2019-05-25T13:05:14.144Z,24.10
2019-05-25T13:06:20.157Z,24.10
2019-05-25T13:07:25.784Z,24.10
2019-05-25T13:08:31.672Z,24.10
2019-05-25T13:09:37.256Z,24.10
2019-05-25T13:10:43.747Z,24.00
2019-05-25T13:11:49.694Z,24.00
2019-05-25T13:12:57.666Z,24.00
2019-05-25T13:14:14.088Z,24.00
2019-05-25T13:15:10.722Z,24.00
2019-05-25T13:16:15.757Z,24.10
2019-05-25T13:17:22.061Z,24.10
2019-05-25T13:18:27.115Z,24.10
2019-05-25T13:19:33.254Z,24.10
2019-05-25T13:20:38.646Z,24.10
2019-05-25T13:21:44.446Z,24.20
2019-05-25T13:22:49.917Z,24.20
2019-05-25T13:23:56.182Z,24.20
2019-05-25T13:25:01.355Z,24.30
2019-05-25T13:26:07.359Z,24.30
2019-05-25T13:27:12.562Z,24.40
2019-05-25T13:28:18.683Z,24.40
2019-05-25T13:29:24.322Z,24.40
2019-05-25T13:30:30.863Z,24.40
2019-05-25T13:31:35.929Z,24.50
2019-05-25T13:32:42.084Z,24.50
2019-05-25T13:33:47.123Z,24.60
2019-05-25T13:34:53.580Z,24.60
2019-05-25T13:35:58.726Z,24.70
2019-05-25T13:37:04.703Z,24.70
2019-05-25T13:38:10.055Z,24.80
2019-05-25T13:39:16.263Z,24.80
2019-05-25T13:40:21.440Z,24.90
2019-05-25T13:41:27.507Z,24.90
2019-05-25T13:42:32.767Z,25.00
2019-05-25T13:43:38.926Z,25.00
2019-05-25T13:44:44.642Z,25.10
2019-05-25T13:45:50.846Z,25.10
2019-05-25T13:46:56.267Z,25.10
2019-05-25T13:48:02.210Z,25.10
2019-05-25T13:49:07.716Z,25.20
2019-05-25T13:50:14.474Z,25.30
2019-05-25T13:51:19.664Z,25.30
2019-05-25T13:52:26.113Z,25.30
2019-05-25T13:53:33.073Z,25.30
2019-05-25T13:54:38.747Z,25.30
2019-05-25T13:55:43.854Z,25.40
2019-05-25T13:56:49.971Z,25.40
2019-05-25T13:57:54.968Z,25.40
2019-05-25T13:59:00.766Z,25.50
2019-05-25T14:00:08.804Z,25.50
2019-05-25T14:01:27.518Z,25.50
2019-05-25T14:02:21.578Z,25.50
2019-05-25T14:03:27.680Z,25.50
2019-05-25T14:04:32.791Z,25.50
2019-05-25T14:05:38.935Z,25.50
2019-05-25T14:06:44.096Z,25.50
2019-05-25T14:07:50.231Z,25.50
2019-05-25T14:08:55.582Z,25.60
2019-05-25T14:10:01.723Z,25.60